Terminal Aerodrome Forecast
Issued by NWS

Home | Current Version | Previous Version | Text Only | Print | Product List | Glossary On
Versions: 1 2 3 4 5 6 7 8 9 10 11 12 13
730
FTUS43 KOAX 232320
TAFSNY
TAF
KSNY 232320Z 2400/2424 36015G25KT P6SM SCT080
     FM240200 03008KT P6SM SKC
     FM240500 26006KT P6SM SKC
     FM241600 21012G23KT P6SM SCT080=

USA.gov is the U.S. government's official web portal to all federal, state and local government web resources and services.